sensor_id;sensor_type;location;lat;lon;timestamp;temperature;humidity
20744;DHT22;56303;52.160;-0.428;2023-04-21T00:01:38;7.00;99.90
20744;DHT22;56303;52.160;-0.428;2023-04-21T00:04:05;7.10;99.90
20744;DHT22;56303;52.160;-0.428;2023-04-21T00:06:32;6.90;99.90
20744;DHT22;56303;52.160;-0.428;2023-04-21T00:08:59;6.90;99.90
20744;DHT22;56303;52.160;-0.428;2023-04-21T00:11:26;7.00;99.90
20744;DHT22;56303;52.160;-0.428;2023-04-21T00:13:53;7.10;99.90
20744;DHT22;56303;52.160;-0.428;2023-04-21T00:16:20;7.40;99.90
20744;DHT22;56303;52.160;-0.428;2023-04-21T00:18:46;7.20;99.90
20744;DHT22;56303;52.160;-0.428;2023-04-21T00:21:13;7.20;99.90
20744;DHT22;56303;52.160;-0.428;2023-04-21T00:23:40;7.10;99.90
20744;DHT22;56303;52.160;-0.428;2023-04-21T00:26:07;6.90;99.90
20744;DHT22;56303;52.160;-0.428;2023-04-21T00:28:33;6.80;99.90
20744;DHT22;56303;52.160;-0.428;2023-04-21T00:31:00;7.00;99.90
20744;DHT22;56303;52.160;-0.428;2023-04-21T00:33:27;6.90;99.90
20744;DHT22;56303;52.160;-0.428;2023-04-21T00:35:54;7.10;99.90
20744;DHT22;56303;52.160;-0.428;2023-04-21T00:38:22;7.30;99.90
20744;DHT22;56303;52.160;-0.428;2023-04-21T00:40:49;7.30;99.90
20744;DHT22;56303;52.160;-0.428;2023-04-21T00:43:16;7.40;99.90
20744;DHT22;56303;52.160;-0.428;2023-04-21T00:45:44;7.00;99.90
20744;DHT22;56303;52.160;-0.428;2023-04-21T00:48:12;7.00;99.90
20744;DHT22;56303;52.160;-0.428;2023-04-21T00:50:39;7.00;99.90
20744;DHT22;56303;52.160;-0.428;2023-04-21T00:53:07;6.90;99.90
20744;DHT22;56303;52.160;-0.428;2023-04-21T00:55:34;6.90;99.90
20744;DHT22;56303;52.160;-0.428;2023-04-21T00:58:02;7.10;99.90
20744;DHT22;56303;52.160;-0.428;2023-04-21T01:00:29;7.10;99.90
20744;DHT22;56303;52.160;-0.428;2023-04-21T01:02:56;7.00;99.90
20744;DHT22;56303;52.160;-0.428;2023-04-21T01:05:23;7.10;99.90
20744;DHT22;56303;52.160;-0.428;2023-04-21T01:07:50;7.00;99.90
20744;DHT22;56303;52.160;-0.428;2023-04-21T01:10:17;8.40;99.90
20744;DHT22;56303;52.160;-0.428;2023-04-21T01:12:45;7.00;99.90
20744;DHT22;56303;52.160;-0.428;2023-04-21T01:15:15;7.30;99.90
20744;DHT22;56303;52.160;-0.428;2023-04-21T01:17:42;7.10;99.90
20744;DHT22;56303;52.160;-0.428;2023-04-21T01:20:13;7.00;99.90
20744;DHT22;56303;52.160;-0.428;2023-04-21T01:22:41;7.20;99.90
20744;DHT22;56303;52.160;-0.428;2023-04-21T01:25:09;7.30;99.90
20744;DHT22;56303;52.160;-0.428;2023-04-21T01:27:36;7.40;99.90
20744;DHT22;56303;52.160;-0.428;2023-04-21T01:30:05;7.20;99.90
20744;DHT22;56303;52.160;-0.428;2023-04-21T01:32:33;7.00;99.90
20744;DHT22;56303;52.160;-0.428;2023-04-21T01:35:00;7.10;99.90
20744;DHT22;56303;52.160;-0.428;2023-04-21T01:37:30;6.90;99.90
20744;DHT22;56303;52.160;-0.428;2023-04-21T01:40:00;6.90;99.90
20744;DHT22;56303;52.160;-0.428;2023-04-21T01:42:28;6.80;99.90
20744;DHT22;56303;52.160;-0.428;2023-04-21T01:44:56;6.80;99.90
20744;DHT22;56303;52.160;-0.428;2023-04-21T01:47:24;6.50;99.90
20744;DHT22;56303;52.160;-0.428;2023-04-21T01:49:51;6.50;99.90
20744;DHT22;56303;52.160;-0.428;2023-04-21T01:52:18;6.40;99.90
20744;DHT22;56303;52.160;-0.428;2023-04-21T01:54:45;7.20;99.90
20744;DHT22;56303;52.160;-0.428;2023-04-21T01:57:12;6.60;99.90
20744;DHT22;56303;52.160;-0.428;2023-04-21T01:59:39;6.70;99.90
20744;DHT22;56303;52.160;-0.428;2023-04-21T02:02:06;6.80;99.90
20744;DHT22;56303;52.160;-0.428;2023-04-21T02:04:33;6.70;99.90
20744;DHT22;56303;52.160;-0.428;2023-04-21T02:07:01;6.70;99.90
20744;DHT22;56303;52.160;-0.428;2023-04-21T02:09:28;6.50;99.90
20744;DHT22;56303;52.160;-0.428;2023-04-21T02:11:55;6.60;99.90
20744;DHT22;56303;52.160;-0.428;2023-04-21T02:14:24;6.50;99.90
20744;DHT22;56303;52.160;-0.428;2023-04-21T02:16:51;6.50;99.90
20744;DHT22;56303;52.160;-0.428;2023-04-21T02:19:18;6.40;99.90
20744;DHT22;56303;52.160;-0.428;2023-04-21T02:21:46;7.50;99.90
20744;DHT22;56303;52.160;-0.428;2023-04-21T02:24:13;6.80;99.90
20744;DHT22;56303;52.160;-0.428;2023-04-21T02:26:39;6.90;99.90
20744;DHT22;56303;52.160;-0.428;2023-04-21T02:29:06;6.90;99.90
20744;DHT22;56303;52.160;-0.428;2023-04-21T02:31:33;7.10;99.90
20744;DHT22;56303;52.160;-0.428;2023-04-21T02:34:08;6.90;99.90
20744;DHT22;56303;52.160;-0.428;2023-04-21T02:36:35;7.00;99.90
20744;DHT22;56303;52.160;-0.428;2023-04-21T02:39:02;7.20;99.90
20744;DHT22;56303;52.160;-0.428;2023-04-21T02:41:30;7.10;99.90
20744;DHT22;56303;52.160;-0.428;2023-04-21T02:43:56;7.00;99.90
20744;DHT22;56303;52.160;-0.428;2023-04-21T02:46:23;6.10;99.90
20744;DHT22;56303;52.160;-0.428;2023-04-21T02:48:50;7.00;99.90
20744;DHT22;56303;52.160;-0.428;2023-04-21T02:51:17;7.10;99.90
20744;DHT22;56303;52.160;-0.428;2023-04-21T02:53:44;7.30;99.90
20744;DHT22;56303;52.160;-0.428;2023-04-21T02:56:10;7.30;99.90
20744;DHT22;56303;52.160;-0.428;2023-04-21T02:58:37;7.40;99.90
20744;DHT22;56303;52.160;-0.428;2023-04-21T03:01:04;7.30;99.90
20744;DHT22;56303;52.160;-0.428;2023-04-21T03:03:32;7.30;99.90
20744;DHT22;56303;52.160;-0.428;2023-04-21T03:06:00;7.60;99.90
20744;DHT22;56303;52.160;-0.428;2023-04-21T03:08:28;7.70;99.90
20744;DHT22;56303;52.160;-0.428;2023-04-21T03:10:55;7.70;99.90
20744;DHT22;56303;52.160;-0.428;2023-04-21T03:13:22;7.50;99.90
20744;DHT22;56303;52.160;-0.428;2023-04-21T03:15:50;7.60;99.90
20744;DHT22;56303;52.160;-0.428;2023-04-21T03:18:17;7.80;99.90
20744;DHT22;56303;52.160;-0.428;2023-04-21T03:20:44;7.50;99.90
20744;DHT22;56303;52.160;-0.428;2023-04-21T03:23:11;7.50;99.90
20744;DHT22;56303;52.160;-0.428;2023-04-21T03:25:38;7.60;99.90
20744;DHT22;56303;52.160;-0.428;2023-04-21T03:28:05;7.50;99.90
20744;DHT22;56303;52.160;-0.428;2023-04-21T03:30:32;7.50;99.90
20744;DHT22;56303;52.160;-0.428;2023-04-21T03:32:59;7.30;99.90
20744;DHT22;56303;52.160;-0.428;2023-04-21T03:35:26;7.50;99.90
20744;DHT22;56303;52.160;-0.428;2023-04-21T03:37:53;7.40;99.90
20744;DHT22;56303;52.160;-0.428;2023-04-21T03:40:20;7.50;99.90
20744;DHT22;56303;52.160;-0.428;2023-04-21T03:42:47;7.60;99.90
20744;DHT22;56303;52.160;-0.428;2023-04-21T03:45:13;7.50;99.90
20744;DHT22;56303;52.160;-0.428;2023-04-21T03:47:40;7.60;99.90
20744;DHT22;56303;52.160;-0.428;2023-04-21T03:50:07;7.70;99.90
20744;DHT22;56303;52.160;-0.428;2023-04-21T03:52:34;7.70;99.90
20744;DHT22;56303;52.160;-0.428;2023-04-21T03:55:01;7.70;99.90
20744;DHT22;56303;52.160;-0.428;2023-04-21T03:57:28;7.90;99.90
20744;DHT22;56303;52.160;-0.428;2023-04-21T03:59:55;7.70;99.90
20744;DHT22;56303;52.160;-0.428;2023-04-21T04:02:21;7.80;99.90
20744;DHT22;56303;52.160;-0.428;2023-04-21T04:04:48;7.90;99.90
20744;DHT22;56303;52.160;-0.428;2023-04-21T04:07:16;7.80;99.90
20744;DHT22;56303;52.160;-0.428;2023-04-21T04:09:43;8.00;99.90
20744;DHT22;56303;52.160;-0.428;2023-04-21T04:12:10;8.10;99.90
20744;DHT22;56303;52.160;-0.428;2023-04-21T04:14:37;8.20;99.90
20744;DHT22;56303;52.160;-0.428;2023-04-21T04:17:05;8.40;99.90
20744;DHT22;56303;52.160;-0.428;2023-04-21T04:19:32;8.30;99.90
20744;DHT22;56303;52.160;-0.428;2023-04-21T04:21:59;8.30;99.90
20744;DHT22;56303;52.160;-0.428;2023-04-21T04:24:27;8.50;99.90
20744;DHT22;56303;52.160;-0.428;2023-04-21T04:26:54;8.70;99.90
20744;DHT22;56303;52.160;-0.428;2023-04-21T04:29:21;8.80;99.90
20744;DHT22;56303;52.160;-0.428;2023-04-21T04:31:51;8.80;99.90
20744;DHT22;56303;52.160;-0.428;2023-04-21T04:34:18;8.80;99.90
20744;DHT22;56303;52.160;-0.428;2023-04-21T04:36:45;8.60;99.90
20744;DHT22;56303;52.160;-0.428;2023-04-21T04:39:15;9.00;99.90
20744;DHT22;56303;52.160;-0.428;2023-04-21T04:41:42;8.90;99.90
20744;DHT22;56303;52.160;-0.428;2023-04-21T04:44:09;8.80;99.90
20744;DHT22;56303;52.160;-0.428;2023-04-21T04:46:36;8.80;99.90
20744;DHT22;56303;52.160;-0.428;2023-04-21T04:49:04;8.90;99.90
20744;DHT22;56303;52.160;-0.428;2023-04-21T04:51:31;9.10;99.90
20744;DHT22;56303;52.160;-0.428;2023-04-21T04:53:59;8.90;99.90
20744;DHT22;56303;52.160;-0.428;2023-04-21T04:56:28;8.80;99.90
20744;DHT22;56303;52.160;-0.428;2023-04-21T04:58:55;8.70;99.90
20744;DHT22;56303;52.160;-0.428;2023-04-21T05:01:22;8.70;99.90
20744;DHT22;56303;52.160;-0.428;2023-04-21T05:03:56;8.70;99.90
20744;DHT22;56303;52.160;-0.428;2023-04-21T05:06:23;8.70;99.90
20744;DHT22;56303;52.160;-0.428;2023-04-21T05:08:51;8.60;99.90
20744;DHT22;56303;52.160;-0.428;2023-04-21T05:11:18;8.80;99.90
20744;DHT22;56303;52.160;-0.428;2023-04-21T05:13:45;8.60;99.90
20744;DHT22;56303;52.160;-0.428;2023-04-21T05:16:11;8.60;99.90
20744;DHT22;56303;52.160;-0.428;2023-04-21T05:18:38;8.70;99.90
20744;DHT22;56303;52.160;-0.428;2023-04-21T05:21:05;8.90;99.90
20744;DHT22;56303;52.160;-0.428;2023-04-21T05:23:32;8.80;99.90
20744;DHT22;56303;52.160;-0.428;2023-04-21T05:25:59;8.80;99.90
20744;DHT22;56303;52.160;-0.428;2023-04-21T05:28:30;9.10;99.90
20744;DHT22;56303;52.160;-0.428;2023-04-21T05:30:57;8.90;99.90
20744;DHT22;56303;52.160;-0.428;2023-04-21T05:33:24;8.80;99.90
20744;DHT22;56303;52.160;-0.428;2023-04-21T05:35:52;8.50;99.90
20744;DHT22;56303;52.160;-0.428;2023-04-21T05:38:19;8.20;99.90
20744;DHT22;56303;52.160;-0.428;2023-04-21T05:40:54;8.00;99.90
20744;DHT22;56303;52.160;-0.428;2023-04-21T05:43:21;8.00;99.90
20744;DHT22;56303;52.160;-0.428;2023-04-21T05:45:48;8.10;99.90
20744;DHT22;56303;52.160;-0.428;2023-04-21T05:48:15;8.10;99.90
20744;DHT22;56303;52.160;-0.428;2023-04-21T05:50:42;8.10;99.90
20744;DHT22;56303;52.160;-0.428;2023-04-21T05:53:09;8.50;99.90
20744;DHT22;56303;52.160;-0.428;2023-04-21T05:55:36;8.50;99.90
20744;DHT22;56303;52.160;-0.428;2023-04-21T05:58:03;8.70;99.90
20744;DHT22;56303;52.160;-0.428;2023-04-21T06:00:31;8.10;99.90
20744;DHT22;56303;52.160;-0.428;2023-04-21T06:02:57;8.70;99.90
20744;DHT22;56303;52.160;-0.428;2023-04-21T06:05:25;9.00;99.90
20744;DHT22;56303;52.160;-0.428;2023-04-21T06:07:52;9.10;99.90
20744;DHT22;56303;52.160;-0.428;2023-04-21T06:10:20;9.20;99.90
20744;DHT22;56303;52.160;-0.428;2023-04-21T06:12:47;9.30;99.90
20744;DHT22;56303;52.160;-0.428;2023-04-21T06:15:14;9.30;99.90
20744;DHT22;56303;52.160;-0.428;2023-04-21T06:17:41;9.50;99.90
20744;DHT22;56303;52.160;-0.428;2023-04-21T06:20:08;9.50;99.90
20744;DHT22;56303;52.160;-0.428;2023-04-21T06:22:36;9.60;99.90
20744;DHT22;56303;52.160;-0.428;2023-04-21T06:25:03;9.60;99.90
20744;DHT22;56303;52.160;-0.428;2023-04-21T06:27:31;9.70;99.90
20744;DHT22;56303;52.160;-0.428;2023-04-21T06:29:57;9.70;99.90
20744;DHT22;56303;52.160;-0.428;2023-04-21T06:32:24;9.70;99.90
20744;DHT22;56303;52.160;-0.428;2023-04-21T06:34:51;9.90;99.90
20744;DHT22;56303;52.160;-0.428;2023-04-21T06:37:18;10.00;99.90
20744;DHT22;56303;52.160;-0.428;2023-04-21T06:39:45;9.90;99.90
20744;DHT22;56303;52.160;-0.428;2023-04-21T06:42:11;9.80;99.90
20744;DHT22;56303;52.160;-0.428;2023-04-21T06:44:38;10.20;99.90
20744;DHT22;56303;52.160;-0.428;2023-04-21T06:47:05;10.10;99.90
20744;DHT22;56303;52.160;-0.428;2023-04-21T06:49:32;10.10;99.90
20744;DHT22;56303;52.160;-0.428;2023-04-21T06:51:59;10.10;99.90
20744;DHT22;56303;52.160;-0.428;2023-04-21T06:54:26;9.70;99.90
20744;DHT22;56303;52.160;-0.428;2023-04-21T06:56:53;9.90;99.90
20744;DHT22;56303;52.160;-0.428;2023-04-21T06:59:20;9.80;99.90
20744;DHT22;56303;52.160;-0.428;2023-04-21T07:01:47;9.80;99.90
20744;DHT22;56303;52.160;-0.428;2023-04-21T07:04:18;9.50;99.90
20744;DHT22;56303;52.160;-0.428;2023-04-21T07:06:46;9.40;99.90
20744;DHT22;56303;52.160;-0.428;2023-04-21T07:09:14;9.50;99.90
20744;DHT22;56303;52.160;-0.428;2023-04-21T07:11:41;9.80;99.90
20744;DHT22;56303;52.160;-0.428;2023-04-21T07:14:07;10.00;99.90
20744;DHT22;56303;52.160;-0.428;2023-04-21T07:16:34;9.80;99.90
20744;DHT22;56303;52.160;-0.428;2023-04-21T07:19:01;9.70;99.90
20744;DHT22;56303;52.160;-0.428;2023-04-21T07:21:28;9.60;99.90
20744;DHT22;56303;52.160;-0.428;2023-04-21T07:23:57;9.50;99.90
20744;DHT22;56303;52.160;-0.428;2023-04-21T07:26:24;8.20;99.90
20744;DHT22;56303;52.160;-0.428;2023-04-21T07:28:51;9.50;99.90
20744;DHT22;56303;52.160;-0.428;2023-04-21T07:31:18;9.40;99.90
20744;DHT22;56303;52.160;-0.428;2023-04-21T07:33:45;9.50;99.90
20744;DHT22;56303;52.160;-0.428;2023-04-21T07:36:12;9.50;99.90
20744;DHT22;56303;52.160;-0.428;2023-04-21T07:38:39;9.50;99.90
20744;DHT22;56303;52.160;-0.428;2023-04-21T07:41:09;9.50;99.90
20744;DHT22;56303;52.160;-0.428;2023-04-21T07:43:38;9.60;99.90
20744;DHT22;56303;52.160;-0.428;2023-04-21T07:46:06;10.10;99.90
20744;DHT22;56303;52.160;-0.428;2023-04-21T07:48:33;10.60;99.90
20744;DHT22;56303;52.160;-0.428;2023-04-21T07:51:00;10.10;99.90
20744;DHT22;56303;52.160;-0.428;2023-04-21T07:53:28;9.60;99.90
20744;DHT22;56303;52.160;-0.428;2023-04-21T07:55:57;10.10;99.90
20744;DHT22;56303;52.160;-0.428;2023-04-21T07:58:23;10.20;99.90
20744;DHT22;56303;52.160;-0.428;2023-04-21T08:00:50;9.90;99.90
20744;DHT22;56303;52.160;-0.428;2023-04-21T08:03:17;10.20;99.90
20744;DHT22;56303;52.160;-0.428;2023-04-21T08:05:47;10.00;99.90
20744;DHT22;56303;52.160;-0.428;2023-04-21T08:08:14;10.00;99.90
20744;DHT22;56303;52.160;-0.428;2023-04-21T08:10:45;10.50;99.90
20744;DHT22;56303;52.160;-0.428;2023-04-21T08:13:12;10.40;99.90
20744;DHT22;56303;52.160;-0.428;2023-04-21T08:15:39;10.40;99.90
20744;DHT22;56303;52.160;-0.428;2023-04-21T08:18:07;10.70;99.90
20744;DHT22;56303;52.160;-0.428;2023-04-21T08:20:34;10.80;99.90
20744;DHT22;56303;52.160;-0.428;2023-04-21T08:23:01;10.70;99.90
20744;DHT22;56303;52.160;-0.428;2023-04-21T08:25:28;10.70;99.90
20744;DHT22;56303;52.160;-0.428;2023-04-21T08:27:57;10.70;99.90
20744;DHT22;56303;52.160;-0.428;2023-04-21T08:30:26;10.90;99.90
20744;DHT22;56303;52.160;-0.428;2023-04-21T08:32:52;11.00;99.90
20744;DHT22;56303;52.160;-0.428;2023-04-21T08:35:19;11.30;99.90
20744;DHT22;56303;52.160;-0.428;2023-04-21T08:37:46;11.40;99.90
20744;DHT22;56303;52.160;-0.428;2023-04-21T08:40:15;11.40;99.90
20744;DHT22;56303;52.160;-0.428;2023-04-21T08:42:43;11.50;99.90
20744;DHT22;56303;52.160;-0.428;2023-04-21T08:45:10;11.70;99.90
20744;DHT22;56303;52.160;-0.428;2023-04-21T08:47:39;11.00;99.90
20744;DHT22;56303;52.160;-0.428;2023-04-21T08:50:11;10.70;99.90
20744;DHT22;56303;52.160;-0.428;2023-04-21T08:52:39;10.60;99.90
20744;DHT22;56303;52.160;-0.428;2023-04-21T08:55:06;10.90;99.90
20744;DHT22;56303;52.160;-0.428;2023-04-21T08:57:33;11.00;99.90
20744;DHT22;56303;52.160;-0.428;2023-04-21T09:00:00;11.00;99.90
20744;DHT22;56303;52.160;-0.428;2023-04-21T09:02:27;10.90;99.90
20744;DHT22;56303;52.160;-0.428;2023-04-21T09:04:54;10.90;99.90
20744;DHT22;56303;52.160;-0.428;2023-04-21T09:07:36;10.90;99.90
20744;DHT22;56303;52.160;-0.428;2023-04-21T09:10:05;10.90;99.90
20744;DHT22;56303;52.160;-0.428;2023-04-21T09:12:32;10.70;99.90
20744;DHT22;56303;52.160;-0.428;2023-04-21T09:15:03;10.50;99.90
20744;DHT22;56303;52.160;-0.428;2023-04-21T09:17:32;10.40;99.90
20744;DHT22;56303;52.160;-0.428;2023-04-21T09:22:38;9.90;99.90
20744;DHT22;56303;52.160;-0.428;2023-04-21T09:25:06;9.70;99.90
20744;DHT22;56303;52.160;-0.428;2023-04-21T09:27:36;9.90;99.90
20744;DHT22;56303;52.160;-0.428;2023-04-21T09:30:05;10.10;99.90
20744;DHT22;56303;52.160;-0.428;2023-04-21T09:32:37;9.80;99.90
20744;DHT22;56303;52.160;-0.428;2023-04-21T09:35:11;9.60;99.90
20744;DHT22;56303;52.160;-0.428;2023-04-21T09:37:39;9.90;99.90
20744;DHT22;56303;52.160;-0.428;2023-04-21T09:40:13;9.90;99.90
20744;DHT22;56303;52.160;-0.428;2023-04-21T09:42:41;9.90;99.90
20744;DHT22;56303;52.160;-0.428;2023-04-21T09:45:11;9.70;99.90
20744;DHT22;56303;52.160;-0.428;2023-04-21T09:47:44;9.50;99.90
20744;DHT22;56303;52.160;-0.428;2023-04-21T09:50:15;9.70;99.90
20744;DHT22;56303;52.160;-0.428;2023-04-21T09:53:10;9.60;99.90
20744;DHT22;56303;52.160;-0.428;2023-04-21T09:55:41;9.30;99.90
20744;DHT22;56303;52.160;-0.428;2023-04-21T09:58:09;9.20;99.90
20744;DHT22;56303;52.160;-0.428;2023-04-21T10:00:38;9.40;99.90
20744;DHT22;56303;52.160;-0.428;2023-04-21T10:03:08;9.40;99.90
20744;DHT22;56303;52.160;-0.428;2023-04-21T10:05:38;9.60;99.90
20744;DHT22;56303;52.160;-0.428;2023-04-21T10:08:10;9.60;99.90
20744;DHT22;56303;52.160;-0.428;2023-04-21T10:10:38;9.60;99.90
20744;DHT22;56303;52.160;-0.428;2023-04-21T10:13:06;9.50;99.90
20744;DHT22;56303;52.160;-0.428;2023-04-21T10:15:40;9.50;99.90
20744;DHT22;56303;52.160;-0.428;2023-04-21T10:21:04;9.40;99.90
20744;DHT22;56303;52.160;-0.428;2023-04-21T10:26:23;9.10;99.90
20744;DHT22;56303;52.160;-0.428;2023-04-21T10:29:05;9.40;99.90
20744;DHT22;56303;52.160;-0.428;2023-04-21T10:39:28;10.70;99.90
20744;DHT22;56303;52.160;-0.428;2023-04-21T10:42:17;10.70;99.90
20744;DHT22;56303;52.160;-0.428;2023-04-21T10:50:18;10.50;99.90
20744;DHT22;56303;52.160;-0.428;2023-04-21T10:52:53;10.70;99.90
20744;DHT22;56303;52.160;-0.428;2023-04-21T10:55:21;10.30;99.90
20744;DHT22;56303;52.160;-0.428;2023-04-21T10:57:48;10.20;99.90
20744;DHT22;56303;52.160;-0.428;2023-04-21T11:00:20;10.30;99.90
20744;DHT22;56303;52.160;-0.428;2023-04-21T11:02:59;10.20;99.90
20744;DHT22;56303;52.160;-0.428;2023-04-21T11:05:34;10.20;99.90
20744;DHT22;56303;52.160;-0.428;2023-04-21T11:08:10;10.20;99.90
20744;DHT22;56303;52.160;-0.428;2023-04-21T11:10:55;10.20;99.90
20744;DHT22;56303;52.160;-0.428;2023-04-21T11:13:25;10.10;99.90
20744;DHT22;56303;52.160;-0.428;2023-04-21T11:16:05;10.00;99.90
20744;DHT22;56303;52.160;-0.428;2023-04-21T11:18:37;10.00;99.90
20744;DHT22;56303;52.160;-0.428;2023-04-21T11:21:15;9.90;99.90
20744;DHT22;56303;52.160;-0.428;2023-04-21T11:23:54;9.90;99.90
20744;DHT22;56303;52.160;-0.428;2023-04-21T11:26:35;9.80;99.90
20744;DHT22;56303;52.160;-0.428;2023-04-21T11:29:05;9.80;99.90
20744;DHT22;56303;52.160;-0.428;2023-04-21T11:31:33;9.80;99.90
20744;DHT22;56303;52.160;-0.428;2023-04-21T11:34:01;9.70;99.90
20744;DHT22;56303;52.160;-0.428;2023-04-21T11:39:09;9.80;99.90
20744;DHT22;56303;52.160;-0.428;2023-04-21T11:41:45;9.60;99.90
20744;DHT22;56303;52.160;-0.428;2023-04-21T11:44:13;9.70;99.90
20744;DHT22;56303;52.160;-0.428;2023-04-21T11:46:44;10.00;99.90
20744;DHT22;56303;52.160;-0.428;2023-04-21T11:49:15;10.30;99.90
20744;DHT22;56303;52.160;-0.428;2023-04-21T11:51:43;10.50;99.90
20744;DHT22;56303;52.160;-0.428;2023-04-21T11:54:13;10.50;99.90
20744;DHT22;56303;52.160;-0.428;2023-04-21T11:56:42;10.20;99.90
20744;DHT22;56303;52.160;-0.428;2023-04-21T11:59:10;10.30;99.90
20744;DHT22;56303;52.160;-0.428;2023-04-21T12:01:44;10.20;99.90
20744;DHT22;56303;52.160;-0.428;2023-04-21T12:04:18;10.30;99.90
20744;DHT22;56303;52.160;-0.428;2023-04-21T12:06:54;10.20;99.90
20744;DHT22;56303;52.160;-0.428;2023-04-21T12:09:22;10.20;99.90
20744;DHT22;56303;52.160;-0.428;2023-04-21T12:11:50;10.20;99.90
20744;DHT22;56303;52.160;-0.428;2023-04-21T12:14:18;10.30;99.90
20744;DHT22;56303;52.160;-0.428;2023-04-21T12:16:51;10.30;99.90
20744;DHT22;56303;52.160;-0.428;2023-04-21T12:19:23;10.50;99.90
20744;DHT22;56303;52.160;-0.428;2023-04-21T12:21:53;10.60;99.90
20744;DHT22;56303;52.160;-0.428;2023-04-21T12:24:21;10.60;99.90
20744;DHT22;56303;52.160;-0.428;2023-04-21T12:26:48;11.00;99.90
20744;DHT22;56303;52.160;-0.428;2023-04-21T12:29:15;11.90;99.90
20744;DHT22;56303;52.160;-0.428;2023-04-21T12:31:42;12.20;99.90
20744;DHT22;56303;52.160;-0.428;2023-04-21T12:34:09;11.70;99.90
20744;DHT22;56303;52.160;-0.428;2023-04-21T12:36:37;11.30;99.90
20744;DHT22;56303;52.160;-0.428;2023-04-21T12:39:04;11.20;99.90
20744;DHT22;56303;52.160;-0.428;2023-04-21T12:41:32;10.90;99.90
20744;DHT22;56303;52.160;-0.428;2023-04-21T12:44:00;11.00;99.90
20744;DHT22;56303;52.160;-0.428;2023-04-21T12:46:27;10.80;99.90
20744;DHT22;56303;52.160;-0.428;2023-04-21T12:48:54;10.80;99.90
20744;DHT22;56303;52.160;-0.428;2023-04-21T12:51:21;10.70;99.90
20744;DHT22;56303;52.160;-0.428;2023-04-21T12:53:48;10.70;99.90
20744;DHT22;56303;52.160;-0.428;2023-04-21T12:56:15;10.70;99.90
20744;DHT22;56303;52.160;-0.428;2023-04-21T12:58:42;11.30;99.90
20744;DHT22;56303;52.160;-0.428;2023-04-21T13:01:09;12.20;99.90
20744;DHT22;56303;52.160;-0.428;2023-04-21T13:03:37;13.40;99.90
20744;DHT22;56303;52.160;-0.428;2023-04-21T13:06:05;14.30;99.90
20744;DHT22;56303;52.160;-0.428;2023-04-21T13:08:32;13.90;99.90
20744;DHT22;56303;52.160;-0.428;2023-04-21T13:10:59;13.40;99.90
20744;DHT22;56303;52.160;-0.428;2023-04-21T13:13:26;13.10;99.90
20744;DHT22;56303;52.160;-0.428;2023-04-21T13:15:53;12.90;99.90
20744;DHT22;56303;52.160;-0.428;2023-04-21T13:18:20;12.00;99.90
20744;DHT22;56303;52.160;-0.428;2023-04-21T13:20:47;11.70;99.90
20744;DHT22;56303;52.160;-0.428;2023-04-21T13:23:13;11.00;99.90
20744;DHT22;56303;52.160;-0.428;2023-04-21T13:25:41;10.50;99.90
20744;DHT22;56303;52.160;-0.428;2023-04-21T13:28:10;10.50;99.90
20744;DHT22;56303;52.160;-0.428;2023-04-21T13:30:39;10.50;99.90
20744;DHT22;56303;52.160;-0.428;2023-04-21T13:33:06;10.70;99.90
20744;DHT22;56303;52.160;-0.428;2023-04-21T13:35:33;11.10;99.90
20744;DHT22;56303;52.160;-0.428;2023-04-21T13:38:00;12.00;99.90
20744;DHT22;56303;52.160;-0.428;2023-04-21T13:40:27;12.50;99.90
20744;DHT22;56303;52.160;-0.428;2023-04-21T13:42:54;12.90;99.90
20744;DHT22;56303;52.160;-0.428;2023-04-21T13:45:21;12.80;99.90
20744;DHT22;56303;52.160;-0.428;2023-04-21T13:47:48;13.50;99.90
20744;DHT22;56303;52.160;-0.428;2023-04-21T13:50:15;13.70;99.90
20744;DHT22;56303;52.160;-0.428;2023-04-21T13:52:42;12.80;99.90
20744;DHT22;56303;52.160;-0.428;2023-04-21T13:55:09;12.40;99.90
20744;DHT22;56303;52.160;-0.428;2023-04-21T13:57:37;12.50;99.90
20744;DHT22;56303;52.160;-0.428;2023-04-21T14:00:04;12.50;99.90
20744;DHT22;56303;52.160;-0.428;2023-04-21T14:02:32;12.30;99.90
20744;DHT22;56303;52.160;-0.428;2023-04-21T14:04:59;12.20;99.90
20744;DHT22;56303;52.160;-0.428;2023-04-21T14:07:26;12.00;99.90
20744;DHT22;56303;52.160;-0.428;2023-04-21T14:09:53;12.00;99.90
20744;DHT22;56303;52.160;-0.428;2023-04-21T14:12:20;12.00;99.90
20744;DHT22;56303;52.160;-0.428;2023-04-21T14:14:47;12.20;99.90
20744;DHT22;56303;52.160;-0.428;2023-04-21T14:17:14;12.40;99.90
20744;DHT22;56303;52.160;-0.428;2023-04-21T14:19:42;12.00;99.90
20744;DHT22;56303;52.160;-0.428;2023-04-21T14:22:09;11.90;99.90
20744;DHT22;56303;52.160;-0.428;2023-04-21T14:24:36;12.50;99.90
20744;DHT22;56303;52.160;-0.428;2023-04-21T14:27:03;12.90;99.90
20744;DHT22;56303;52.160;-0.428;2023-04-21T14:29:30;12.80;99.90
20744;DHT22;56303;52.160;-0.428;2023-04-21T14:31:57;13.30;99.90
20744;DHT22;56303;52.160;-0.428;2023-04-21T14:34:25;13.20;99.90
20744;DHT22;56303;52.160;-0.428;2023-04-21T14:36:52;13.40;99.90
20744;DHT22;56303;52.160;-0.428;2023-04-21T14:39:19;12.90;99.90
20744;DHT22;56303;52.160;-0.428;2023-04-21T14:41:46;12.60;99.90
20744;DHT22;56303;52.160;-0.428;2023-04-21T14:44:12;13.10;99.90
20744;DHT22;56303;52.160;-0.428;2023-04-21T14:46:39;12.50;99.90
20744;DHT22;56303;52.160;-0.428;2023-04-21T14:49:10;11.90;99.90
20744;DHT22;56303;52.160;-0.428;2023-04-21T14:51:37;12.40;99.90
20744;DHT22;56303;52.160;-0.428;2023-04-21T14:54:06;13.00;99.90
20744;DHT22;56303;52.160;-0.428;2023-04-21T14:56:34;13.60;99.90
20744;DHT22;56303;52.160;-0.428;2023-04-21T14:59:01;14.00;99.90
20744;DHT22;56303;52.160;-0.428;2023-04-21T15:01:28;14.40;99.90
20744;DHT22;56303;52.160;-0.428;2023-04-21T15:03:56;14.70;99.90
20744;DHT22;56303;52.160;-0.428;2023-04-21T15:06:25;14.60;99.90
20744;DHT22;56303;52.160;-0.428;2023-04-21T15:08:55;15.50;99.90
20744;DHT22;56303;52.160;-0.428;2023-04-21T15:11:22;16.10;99.90
20744;DHT22;56303;52.160;-0.428;2023-04-21T15:13:49;16.00;99.90
20744;DHT22;56303;52.160;-0.428;2023-04-21T15:16:16;15.90;99.90
20744;DHT22;56303;52.160;-0.428;2023-04-21T15:18:43;14.70;99.90
20744;DHT22;56303;52.160;-0.428;2023-04-21T15:21:10;15.10;99.90
20744;DHT22;56303;52.160;-0.428;2023-04-21T15:23:37;16.00;99.90
20744;DHT22;56303;52.160;-0.428;2023-04-21T15:26:04;16.90;99.90
20744;DHT22;56303;52.160;-0.428;2023-04-21T15:28:30;18.20;99.90
20744;DHT22;56303;52.160;-0.428;2023-04-21T15:30:58;16.90;99.90
20744;DHT22;56303;52.160;-0.428;2023-04-21T15:33:25;15.50;99.90
20744;DHT22;56303;52.160;-0.428;2023-04-21T15:35:52;15.40;99.90
20744;DHT22;56303;52.160;-0.428;2023-04-21T15:38:19;15.60;99.90
20744;DHT22;56303;52.160;-0.428;2023-04-21T15:40:46;16.00;99.90
20744;DHT22;56303;52.160;-0.428;2023-04-21T15:43:26;15.30;99.90
20744;DHT22;56303;52.160;-0.428;2023-04-21T15:45:53;14.80;99.90
20744;DHT22;56303;52.160;-0.428;2023-04-21T15:48:20;14.30;99.90
20744;DHT22;56303;52.160;-0.428;2023-04-21T15:50:47;13.80;99.90
20744;DHT22;56303;52.160;-0.428;2023-04-21T15:53:14;13.40;99.90
20744;DHT22;56303;52.160;-0.428;2023-04-21T15:55:45;13.60;99.90